Time;durP1;ratioP1;P1;durP2;ratioP2;P2;SDS_P1;SDS_P2;PMS_P1;PMS_P2;Temp;Humidity;BMP_temperature;BMP_pressure;BME280_temperature;BME280_humidity;BME280_pressure;Samples;Min_cycle;Max_cycle;Signal;HPM_P1;HPM_P2
2022/10/15 00:00:11;;;;;;;35.00;23.00;;;;;12.60;100258.00;;;;10478456;28;20193;-75
2022/10/15 00:05:12;;;;;;;33.63;22.83;;;;;12.60;100270.00;;;;10483342;28;20213;-75
2022/10/15 00:10:13;;;;;;;36.03;22.73;;;;;12.60;100269.00;;;;10486018;28;20213;-75
2022/10/15 00:15:15;;;;;;;36.93;22.47;;;;;12.70;100279.00;;;;10480158;28;20194;-75
2022/10/15 00:20:16;;;;;;;36.40;22.87;;;;;12.80;100281.00;;;;10479556;28;20193;-75
2022/10/15 00:25:18;;;;;;;40.70;25.13;;;;;12.90;100277.00;;;;10463321;28;20294;-75
2022/10/15 00:30:19;;;;;;;43.27;25.40;;;;;13.00;100274.00;;;;10471435;28;20909;-75
2022/10/15 00:35:20;;;;;;;40.90;25.10;;;;;13.20;100276.00;;;;10458326;28;20193;-75
2022/10/15 00:40:21;;;;;;;39.57;24.83;;;;;13.30;100269.00;;;;10478242;28;20193;-75
2022/10/15 00:45:23;;;;;;;45.20;25.60;;;;;13.30;100265.00;;;;10458536;28;20192;-75
2022/10/15 00:50:26;;;;;;;43.37;25.50;;;;;13.40;100261.00;;;;10465799;28;20229;-75
2022/10/15 00:55:31;;;;;;;39.70;25.77;;;;;13.40;100265.00;;;;10470345;28;20351;-75
2022/10/15 01:00:33;;;;;;;39.03;24.43;;;;;13.40;100261.00;;;;10482150;28;20228;-75
2022/10/15 01:05:37;;;;;;;38.70;24.63;;;;;13.50;100254.00;;;;10495099;28;20226;-75
2022/10/15 01:10:49;;;;;;;43.50;24.77;;;;;13.50;100257.00;;;;10452804;28;20679;-75
2022/10/15 01:15:59;;;;;;;39.50;26.23;;;;;13.50;100258.00;;;;10473933;28;20206;-75
2022/10/15 01:21:20;;;;;;;41.13;23.70;;;;;13.50;100253.00;;;;10461523;28;20760;-75
2022/10/15 01:27:01;;;;;;;40.10;24.37;;;;;13.50;100234.00;;;;10484179;28;20203;-75
2022/10/15 01:32:19;;;;;;;42.67;24.77;;;;;13.50;100242.00;;;;10437680;28;20210;-75
2022/10/15 01:37:40;;;;;;;40.13;23.70;;;;;13.50;100229.00;;;;10435185;28;20843;-75
2022/10/15 01:43:08;;;;;;;34.33;23.00;;;;;13.50;100225.00;;;;10485171;28;20192;-75
2022/10/15 01:48:32;;;;;;;39.43;23.63;;;;;13.50;100233.00;;;;10468282;28;20211;-75
2022/10/15 01:53:35;;;;;;;38.13;23.80;;;;;13.50;100228.00;;;;10448668;28;20201;-75
2022/10/15 01:58:40;;;;;;;38.67;23.87;;;;;13.50;100216.00;;;;10465310;28;20246;-75
2022/10/15 02:03:50;;;;;;;32.63;20.63;;;;;13.40;100207.00;;;;10436148;28;20206;-75
2022/10/15 02:09:11;;;;;;;33.23;22.17;;;;;13.30;100195.00;;;;10430727;28;20214;-74
2022/10/15 02:14:28;;;;;;;35.13;23.03;;;;;13.10;100191.00;;;;10470397;28;20668;-75
2022/10/15 02:19:46;;;;;;;36.60;22.13;;;;;13.10;100191.00;;;;10487708;28;20189;-75
2022/10/15 02:24:48;;;;;;;36.80;22.60;;;;;13.10;100193.00;;;;10436130;28;20221;-75
2022/10/15 02:29:59;;;;;;;41.67;23.27;;;;;13.20;100184.00;;;;10465279;28;20245;-75
2022/10/15 02:35:01;;;;;;;43.13;23.13;;;;;13.20;100182.00;;;;10477127;28;20536;-75
2022/10/15 02:40:03;;;;;;;40.83;23.00;;;;;13.30;100182.00;;;;10463578;28;20202;-75
2022/10/15 02:45:05;;;;;;;38.13;22.03;;;;;13.30;100181.00;;;;10480652;28;20736;-75
2022/10/15 02:50:06;;;;;;;44.40;22.40;;;;;13.30;100182.00;;;;10483834;28;20222;-75
2022/10/15 02:55:08;;;;;;;46.07;23.93;;;;;13.30;100189.00;;;;10467837;28;20236;-75
2022/10/15 03:00:10;;;;;;;38.53;21.63;;;;;13.30;100180.00;;;;10485892;28;20267;-75
2022/10/15 03:05:13;;;;;;;36.17;20.57;;;;;13.40;100165.00;;;;10459103;28;20247;-75
2022/10/15 03:10:14;;;;;;;38.50;21.30;;;;;13.40;100166.00;;;;10481064;28;20214;-75
2022/10/15 03:15:16;;;;;;;37.43;20.90;;;;;13.30;100165.00;;;;10447645;28;20295;-75
2022/10/15 03:20:19;;;;;;;34.37;19.87;;;;;13.40;100170.00;;;;10463103;28;20202;-75
2022/10/15 03:25:20;;;;;;;33.47;18.63;;;;;13.30;100155.00;;;;10494355;28;20811;-75
2022/10/15 03:30:28;;;;;;;31.93;19.53;;;;;13.40;100146.00;;;;10473167;28;20214;-75
2022/10/15 03:35:29;;;;;;;34.07;19.00;;;;;13.30;100136.00;;;;10467423;28;20212;-75
2022/10/15 03:40:31;;;;;;;30.33;18.50;;;;;13.10;100129.00;;;;10473230;28;20825;-75
2022/10/15 03:45:44;;;;;;;28.40;18.03;;;;;12.90;100131.00;;;;10447592;28;20198;-75
2022/10/15 03:50:52;;;;;;;29.10;17.67;;;;;12.70;100132.00;;;;10464598;28;20218;-75
2022/10/15 03:55:54;;;;;;;29.27;17.53;;;;;12.60;100133.00;;;;10451886;28;20207;-75
2022/10/15 04:00:55;;;;;;;33.93;19.10;;;;;12.50;100129.00;;;;10497931;28;20197;-75
2022/10/15 04:05:56;;;;;;;32.90;18.60;;;;;12.50;100125.00;;;;10447688;28;20217;-75
2022/10/15 04:11:04;;;;;;;35.17;20.13;;;;;12.60;100109.00;;;;10482774;28;20209;-75
2022/10/15 04:16:06;;;;;;;33.53;19.77;;;;;12.60;100105.00;;;;10466292;28;20202;-74
2022/10/15 04:21:08;;;;;;;35.20;19.23;;;;;12.60;100096.00;;;;10440843;28;20189;-75
2022/10/15 04:26:11;;;;;;;36.20;18.60;;;;;12.70;100102.00;;;;10468681;28;20208;-75
2022/10/15 04:31:12;;;;;;;32.43;19.07;;;;;12.70;100105.00;;;;10478812;28;20212;-75
2022/10/15 04:36:14;;;;;;;29.93;16.67;;;;;12.70;100096.00;;;;10481923;28;20683;-75
2022/10/15 04:41:42;;;;;;;31.53;17.03;;;;;12.60;100106.00;;;;10481027;28;20215;-75
2022/10/15 04:47:03;;;;;;;27.40;16.87;;;;;12.50;100101.00;;;;10458393;28;20198;-75
2022/10/15 04:52:16;;;;;;;25.00;15.20;;;;;12.40;100103.00;;;;10475101;28;20205;-75
2022/10/15 04:57:26;;;;;;;27.47;16.00;;;;;12.40;100098.00;;;;10475373;28;20261;-74
2022/10/15 05:02:28;;;;;;;27.93;16.97;;;;;12.40;100097.00;;;;10464695;28;20213;-74
2022/10/15 05:07:43;;;;;;;30.10;16.87;;;;;12.40;100103.00;;;;10469808;28;20213;-74
2022/10/15 05:12:45;;;;;;;29.13;15.00;;;;;12.50;100101.00;;;;10498410;28;20197;-74
2022/10/15 05:17:47;;;;;;;26.00;14.13;;;;;12.50;100107.00;;;;10488622;28;20277;-74
2022/10/15 05:22:49;;;;;;;25.03;13.27;;;;;12.60;100103.00;;;;10480906;28;20420;-75
2022/10/15 05:27:50;;;;;;;28.60;14.77;;;;;12.60;100100.00;;;;10483482;28;20660;-74
2022/10/15 05:32:52;;;;;;;25.07;13.93;;;;;12.70;100100.00;;;;10443552;28;20205;-74
2022/10/15 05:37:54;;;;;;;19.53;11.80;;;;;12.70;100099.00;;;;10454922;28;20216;-75
2022/10/15 05:42:57;;;;;;;20.70;11.20;;;;;12.70;100102.00;;;;10468300;28;20553;-74
2022/10/15 05:47:59;;;;;;;18.77;10.47;;;;;12.80;100099.00;;;;10478251;28;20438;-74
2022/10/15 05:53:00;;;;;;;16.83;9.03;;;;;12.80;100086.00;;;;10486134;28;20197;-74
2022/10/15 05:58:22;;;;;;;18.33;9.27;;;;;12.90;100060.00;;;;10461216;28;20679;-74
2022/10/15 06:03:23;;;;;;;17.93;9.10;;;;;12.90;100056.00;;;;10469873;28;20190;-75
2022/10/15 06:08:27;;;;;;;20.87;9.20;;;;;12.90;100045.00;;;;10475550;28;20220;-75
2022/10/15 06:13:29;;;;;;;15.33;7.77;;;;;12.90;100042.00;;;;10468395;28;20241;-75
2022/10/15 06:18:30;;;;;;;15.30;8.80;;;;;13.00;100050.00;;;;10470512;28;20294;-74
2022/10/15 06:23:31;;;;;;;13.83;7.67;;;;;13.00;100052.00;;;;10473488;28;20857;-75
2022/10/15 06:28:34;;;;;;;14.23;7.83;;;;;13.10;100045.00;;;;10474127;28;20221;-75
2022/10/15 06:33:35;;;;;;;18.13;8.97;;;;;13.20;100037.00;;;;10465443;28;20208;-75
2022/10/15 06:38:38;;;;;;;17.73;9.47;;;;;13.30;100034.00;;;;10450336;28;20211;-75
2022/10/15 06:43:39;;;;;;;16.77;8.07;;;;;13.40;100039.00;;;;10491652;28;20205;-75
2022/10/15 06:48:40;;;;;;;17.43;8.90;;;;;13.60;100034.00;;;;10443035;28;20224;-75
2022/10/15 06:53:42;;;;;;;16.23;7.93;;;;;13.80;100028.00;;;;10459552;28;20220;-75
2022/10/15 06:58:44;;;;;;;18.37;8.63;;;;;13.90;100027.00;;;;10459038;28;20319;-75
2022/10/15 07:03:48;;;;;;;16.93;8.17;;;;;13.90;100016.00;;;;10467863;28;20208;-75
2022/10/15 07:08:49;;;;;;;14.73;8.07;;;;;14.10;100008.00;;;;10465498;28;20219;-75
2022/10/15 07:13:50;;;;;;;14.60;7.27;;;;;14.10;100013.00;;;;10470928;28;20213;-75
2022/10/15 07:18:52;;;;;;;11.03;6.57;;;;;14.30;100007.00;;;;10471068;28;20765;-75
2022/10/15 07:23:53;;;;;;;13.18;7.40;;;;;14.30;100007.00;;;;10456876;28;20671;-75
2022/10/15 07:28:54;;;;;;;9.70;6.47;;;;;14.40;100013.00;;;;10485353;28;20213;-75
2022/10/15 07:33:55;;;;;;;9.90;5.30;;;;;14.60;99995.00;;;;10459098;28;20431;-75
2022/10/15 07:38:57;;;;;;;8.27;5.45;;;;;14.90;99984.00;;;;10476494;28;20648;-75
2022/10/15 07:43:58;;;;;;;11.50;5.75;;;;;15.30;99982.00;;;;10496719;28;20205;-75
2022/10/15 07:48:59;;;;;;;6.40;4.28;;;;;15.60;99972.00;;;;10440040;28;20217;-75
2022/10/15 07:54:00;;;;;;;6.30;4.47;;;;;15.60;99973.00;;;;10468700;28;20212;-75
2022/10/15 07:59:02;;;;;;;5.18;3.78;;;;;15.50;99977.00;;;;10450871;28;20296;-75
2022/10/15 08:04:03;;;;;;;5.35;3.13;;;;;15.40;99975.00;;;;10470943;28;20224;-75
2022/10/15 08:09:04;;;;;;;3.92;3.08;;;;;15.50;99977.00;;;;10467265;28;20706;-76
2022/10/15 08:14:06;;;;;;;4.18;2.80;;;;;15.80;99967.00;;;;10501466;28;20189;-76
2022/10/15 08:19:07;;;;;;;3.10;2.58;;;;;16.20;99956.00;;;;10459857;28;20205;-75
2022/10/15 08:24:08;;;;;;;4.43;2.47;;;;;16.70;99958.00;;;;10470383;28;20347;-76
2022/10/15 08:29:09;;;;;;;2.58;2.20;;;;;16.80;99963.00;;;;10449559;28;20219;-76
2022/10/15 08:34:11;;;;;;;3.35;1.98;;;;;16.90;99948.00;;;;10471521;28;20193;-76
2022/10/15 08:39:12;;;;;;;2.08;1.70;;;;;16.80;99962.00;;;;10489754;28;20216;-75
2022/10/15 08:44:25;;;;;;;1.83;1.50;;;;;17.10;99958.00;;;;10470132;28;20226;-75
2022/10/15 08:49:48;;;;;;;1.42;1.30;;;;;17.20;99951.00;;;;10461186;28;20221;-76
2022/10/15 08:54:50;;;;;;;2.28;1.20;;;;;17.00;99951.00;;;;10484496;28;20202;-76
2022/10/15 09:00:01;;;;;;;1.58;0.98;;;;;16.90;99966.00;;;;10449209;28;20198;-76
2022/10/15 09:05:20;;;;;;;1.38;1.10;;;;;16.90;99968.00;;;;10490235;28;20265;-75
2022/10/15 09:10:40;;;;;;;1.23;1.00;;;;;17.30;99967.00;;;;10465454;28;20783;-75
2022/10/15 09:15:52;;;;;;;1.90;0.80;;;;;17.20;99975.00;;;;10471116;28;20198;-75
2022/10/15 09:20:55;;;;;;;3.20;0.70;;;;;17.10;99977.00;;;;10462550;28;20759;-75
2022/10/15 09:26:19;;;;;;;2.08;1.02;;;;;17.10;99972.00;;;;10475035;28;20201;-75
2022/10/15 09:31:25;;;;;;;4.70;1.08;;;;;17.00;99984.00;;;;10464105;28;20218;-75
2022/10/15 09:36:34;;;;;;;1.73;0.73;;;;;16.80;99979.00;;;;10479314;28;20193;-75
2022/10/15 09:41:50;;;;;;;0.80;0.60;;;;;16.90;99976.00;;;;10468025;28;20907;-75
2022/10/15 09:46:51;;;;;;;1.25;0.80;;;;;17.80;99971.00;;;;10477456;28;20197;-74
2022/10/15 09:52:46;;;;;;;2.20;0.70;;;;;17.80;99972.00;;;;10473356;28;20274;-73
2022/10/15 09:57:52;;;;;;;1.50;0.77;;;;;18.50;99968.00;;;;10365181;28;20572;-73
2022/10/15 10:03:06;;;;;;;1.00;0.90;;;;;18.90;99968.00;;;;10438394;28;20194;-73
2022/10/15 10:08:23;;;;;;;0.73;0.60;;;;;18.90;99968.00;;;;10472061;28;20206;-74
2022/10/15 10:13:29;;;;;;;1.60;0.70;;;;;19.00;99968.00;;;;10483689;28;20287;-74
2022/10/15 10:18:31;;;;;;;2.42;1.15;;;;;19.20;99968.00;;;;10478482;28;20209;-74
2022/10/15 10:23:38;;;;;;;1.45;1.35;;;;;19.10;99977.00;;;;10503527;28;20239;-74
2022/10/15 10:28:48;;;;;;;3.08;1.50;;;;;19.40;99980.00;;;;10475166;28;20584;-74
2022/10/15 10:33:51;;;;;;;0.98;0.98;;;;;19.20;99982.00;;;;10470694;28;20201;-74
2022/10/15 10:39:12;;;;;;;1.02;0.93;;;;;18.90;99991.00;;;;10482586;28;20205;-73
2022/10/15 10:44:20;;;;;;;4.30;1.10;;;;;18.80;99992.00;;;;10488983;28;20212;-74
2022/10/15 10:49:36;;;;;;;2.90;1.00;;;;;18.70;99996.00;;;;10487299;28;20217;-74
2022/10/15 10:54:41;;;;;;;3.88;1.00;;;;;18.80;99989.00;;;;10473175;28;20201;-74
2022/10/15 10:59:51;;;;;;;1.45;1.15;;;;;18.90;99995.00;;;;10475418;28;20284;-74
2022/10/15 11:04:52;;;;;;;1.95;1.50;;;;;19.10;99992.00;;;;10473124;28;20225;-74
2022/10/15 11:10:00;;;;;;;1.73;1.63;;;;;19.70;99996.00;;;;10488381;28;20565;-74
2022/10/15 11:15:35;;;;;;;1.00;1.00;;;;;19.70;99993.00;;;;10487829;28;20194;-74
2022/10/15 11:20:48;;;;;;;0.90;0.90;;;;;19.30;100006.00;;;;10489429;28;20208;-73
2022/10/15 11:27:03;;;;;;;2.90;1.23;;;;;19.10;100003.00;;;;10474920;28;20244;-74
2022/10/15 11:32:23;;;;;;;2.30;1.13;;;;;18.80;100012.00;;;;10281322;28;20217;-74
2022/10/15 11:37:52;;;;;;;1.45;1.10;;;;;18.90;100006.00;;;;10473195;28;20575;-74
2022/10/15 11:42:58;;;;;;;1.33;1.13;;;;;18.80;100006.00;;;;10498756;28;20201;-73
2022/10/15 11:48:17;;;;;;;1.30;1.08;;;;;18.90;100005.00;;;;10477030;28;20210;-73
2022/10/15 11:54:05;;;;;;;1.48;1.25;;;;;19.60;99986.00;;;;10478559;28;20656;-74
2022/10/15 11:59:32;;;;;;;4.32;1.10;;;;;20.30;99982.00;;;;10487166;28;20255;-74
2022/10/15 12:04:52;;;;;;;3.00;1.00;;;;;20.60;99992.00;;;;10492649;28;20266;-73
2022/10/15 12:10:04;;;;;;;0.70;0.70;;;;;20.60;99987.00;;;;10491642;28;20205;-74
2022/10/15 12:15:38;;;;;;;1.48;1.00;;;;;20.50;100000.00;;;;10493384;28;20193;-73
2022/10/15 12:20:44;;;;;;;0.70;0.70;;;;;20.20;100007.00;;;;10492302;28;20230;-73
2022/10/15 12:25:45;;;;;;;0.90;0.80;;;;;19.80;100017.00;;;;10470355;28;20251;-74
2022/10/15 12:31:02;;;;;;;0.80;0.80;;;;;19.00;100044.00;;;;10494042;28;20271;-74
2022/10/15 12:36:29;;;;;;;0.85;0.70;;;;;18.70;100060.00;;;;10466343;28;20200;-74
2022/10/15 12:41:37;;;;;;;1.95;1.05;;;;;18.60;100062.00;;;;10484632;28;20210;-74
2022/10/15 12:46:39;;;;;;;0.63;0.52;;;;;19.00;100074.00;;;;10455996;28;20292;-74
2022/10/15 12:51:40;;;;;;;0.43;0.43;;;;;19.40;100055.00;;;;10474919;28;20312;-75
2022/10/15 12:56:41;;;;;;;0.90;0.52;;;;;19.20;100065.00;;;;10476184;28;20219;-74
2022/10/15 13:01:43;;;;;;;1.65;0.60;;;;;19.30;100068.00;;;;10476351;28;20192;-74
2022/10/15 13:06:44;;;;;;;0.40;0.40;;;;;20.30;100085.00;;;;10481856;28;20817;-74
2022/10/15 13:11:51;;;;;;;0.90;0.60;;;;;20.10;100095.00;;;;10459249;28;20217;-75
2022/10/15 13:17:00;;;;;;;1.58;0.82;;;;;19.60;100080.00;;;;10482577;28;20200;-75
2022/10/15 13:22:03;;;;;;;1.98;0.55;;;;;19.50;100101.00;;;;10470450;28;20541;-74
2022/10/15 13:27:20;;;;;;;1.73;0.70;;;;;18.90;100098.00;;;;10489305;28;20533;-74
2022/10/15 13:32:23;;;;;;;1.48;0.60;;;;;19.10;100101.00;;;;10490737;28;20228;-74
2022/10/15 13:37:31;;;;;;;1.40;0.60;;;;;19.50;100106.00;;;;10481200;28;20204;-74
2022/10/15 13:42:33;;;;;;;2.15;0.60;;;;;20.10;100106.00;;;;10478962;28;20208;-74
2022/10/15 13:47:36;;;;;;;0.65;0.52;;;;;19.70;100107.00;;;;10497793;28;20855;-74
2022/10/15 13:52:41;;;;;;;2.22;0.50;;;;;19.60;100114.00;;;;10477156;28;20740;-74
2022/10/15 13:57:47;;;;;;;1.15;0.70;;;;;19.80;100128.00;;;;10484568;28;20216;-73
2022/10/15 14:03:06;;;;;;;0.68;0.52;;;;;19.70;100126.00;;;;10487718;28;20210;-74
2022/10/15 14:08:18;;;;;;;3.33;0.80;;;;;19.80;100118.00;;;;10492685;28;20313;-75
2022/10/15 14:13:19;;;;;;;3.25;0.70;;;;;20.00;100131.00;;;;10496014;28;20924;-75
2022/10/15 14:18:34;;;;;;;2.42;0.88;;;;;20.00;100128.00;;;;10493890;28;20201;-74
2022/10/15 14:23:35;;;;;;;3.00;0.90;;;;;19.90;100122.00;;;;10498989;28;20725;-75
2022/10/15 14:28:38;;;;;;;1.33;0.60;;;;;20.00;100132.00;;;;10445774;28;20228;-75
2022/10/15 14:33:42;;;;;;;3.65;1.02;;;;;20.00;100142.00;;;;10498174;28;20253;-75
2022/10/15 14:38:43;;;;;;;2.65;0.70;;;;;19.30;100137.00;;;;10485058;28;20233;-75
2022/10/15 14:43:44;;;;;;;1.55;0.60;;;;;19.10;100132.00;;;;10488113;28;20185;-74
2022/10/15 14:48:45;;;;;;;2.80;0.70;;;;;20.20;100098.00;;;;10471191;28;20205;-75
2022/10/15 14:53:47;;;;;;;1.20;0.60;;;;;19.70;100148.00;;;;10463964;28;20242;-74
2022/10/15 14:58:52;;;;;;;2.33;0.60;;;;;18.90;100151.00;;;;10458292;28;20536;-74
2022/10/15 15:03:55;;;;;;;5.60;1.10;;;;;18.40;100146.00;;;;10470585;28;20225;-74
2022/10/15 15:08:57;;;;;;;4.45;0.88;;;;;18.30;100138.00;;;;10459676;28;20217;-74
2022/10/15 15:13:59;;;;;;;2.78;0.68;;;;;18.40;100143.00;;;;10490167;28;20198;-74
2022/10/15 15:19:01;;;;;;;4.25;0.93;;;;;18.20;100139.00;;;;10486317;28;20197;-74
2022/10/15 15:24:02;;;;;;;4.25;1.00;;;;;18.00;100144.00;;;;10468476;28;20540;-74
2022/10/15 15:29:11;;;;;;;2.45;0.70;;;;;18.20;100151.00;;;;10467314;28;20266;-74
2022/10/15 15:34:14;;;;;;;3.05;1.08;;;;;18.00;100153.00;;;;10485159;28;20726;-74
2022/10/15 15:39:16;;;;;;;3.35;1.13;;;;;18.00;100152.00;;;;10502805;28;20246;-74
2022/10/15 15:44:17;;;;;;;1.77;1.27;;;;;18.10;100166.00;;;;10490500;28;20233;-74
2022/10/15 15:49:18;;;;;;;2.67;1.73;;;;;18.00;100173.00;;;;10477251;28;20312;-74
2022/10/15 15:54:19;;;;;;;3.05;0.98;;;;;17.90;100173.00;;;;10483965;28;20466;-74
2022/10/15 15:59:20;;;;;;;2.47;0.73;;;;;17.60;100162.00;;;;10506220;28;20198;-74
2022/10/15 16:04:21;;;;;;;2.65;1.08;;;;;17.40;100175.00;;;;10486189;28;20224;-74
2022/10/15 16:09:25;;;;;;;13.27;10.73;;;;;17.10;100177.00;;;;10483714;28;20217;-74
2022/10/15 16:14:26;;;;;;;3.05;2.30;;;;;16.80;100181.00;;;;10488329;28;20247;-74
2022/10/15 16:19:27;;;;;;;4.57;2.20;;;;;16.60;100194.00;;;;10494212;28;20196;-74
2022/10/15 16:24:28;;;;;;;3.60;1.20;;;;;16.30;100185.00;;;;10472395;28;20881;-74
2022/10/15 16:29:29;;;;;;;6.03;3.28;;;;;16.10;100197.00;;;;10418761;28;20244;-74
2022/10/15 16:34:31;;;;;;;5.47;1.88;;;;;15.90;100203.00;;;;10488906;28;20205;-74
2022/10/15 16:39:32;;;;;;;5.57;1.65;;;;;15.60;100213.00;;;;10477345;28;20203;-74
2022/10/15 16:44:33;;;;;;;4.13;1.20;;;;;15.40;100226.00;;;;10481465;28;20201;-74
2022/10/15 16:49:34;;;;;;;7.93;1.27;;;;;15.30;100236.00;;;;10493046;28;20779;-74
2022/10/15 16:54:36;;;;;;;3.58;1.48;;;;;15.10;100246.00;;;;10482929;28;20198;-74
2022/10/15 16:59:37;;;;;;;5.07;1.00;;;;;15.10;100254.00;;;;10468450;28;20198;-75
2022/10/15 17:04:38;;;;;;;3.15;1.23;;;;;15.00;100265.00;;;;10495514;28;20222;-75
2022/10/15 17:09:39;;;;;;;2.75;1.20;;;;;14.90;100268.00;;;;10484703;28;20213;-74
2022/10/15 17:14:41;;;;;;;6.68;1.20;;;;;14.80;100290.00;;;;10474947;28;20254;-74
2022/10/15 17:19:42;;;;;;;3.78;1.23;;;;;14.80;100308.00;;;;10495419;28;20219;-74
2022/10/15 17:24:43;;;;;;;4.88;1.40;;;;;14.70;100311.00;;;;10499760;28;20772;-74
2022/10/15 17:29:47;;;;;;;3.05;1.67;;;;;14.50;100298.00;;;;10503159;28;20217;-74
2022/10/15 17:34:48;;;;;;;6.07;1.55;;;;;14.40;100309.00;;;;10476797;28;20205;-74
2022/10/15 17:39:50;;;;;;;3.28;1.40;;;;;14.30;100302.00;;;;10491726;28;20928;-74
2022/10/15 17:44:52;;;;;;;5.35;1.42;;;;;14.20;100317.00;;;;10488845;28;20772;-74
2022/10/15 17:49:53;;;;;;;6.70;1.70;;;;;14.10;100322.00;;;;10480647;28;20266;-74
2022/10/15 17:54:54;;;;;;;5.43;1.67;;;;;14.10;100322.00;;;;10497690;28;20197;-74
2022/10/15 17:59:55;;;;;;;3.60;1.73;;;;;14.10;100345.00;;;;10474269;28;20197;-74
2022/10/15 18:04:56;;;;;;;5.07;1.83;;;;;14.10;100340.00;;;;10456655;28;20282;-74
2022/10/15 18:10:00;;;;;;;3.37;1.40;;;;;14.00;100334.00;;;;10470644;28;20221;-75
2022/10/15 18:15:01;;;;;;;6.30;2.17;;;;;13.90;100340.00;;;;10468400;28;20882;-75
2022/10/15 18:20:04;;;;;;;5.67;2.20;;;;;13.90;100332.00;;;;10458499;28;20236;-74
2022/10/15 18:25:05;;;;;;;4.63;2.03;;;;;13.90;100333.00;;;;10491862;28;20284;-74
2022/10/15 18:30:07;;;;;;;2.93;1.60;;;;;13.80;100351.00;;;;10458093;28;20213;-75
2022/10/15 18:35:08;;;;;;;6.97;1.43;;;;;13.80;100347.00;;;;10477612;28;20200;-75
2022/10/15 18:40:10;;;;;;;4.67;2.03;;;;;13.80;100360.00;;;;10490870;28;20213;-75
2022/10/15 18:45:11;;;;;;;8.77;1.90;;;;;13.80;100356.00;;;;10486390;28;20209;-75
2022/10/15 18:50:12;;;;;;;3.77;1.97;;;;;13.80;100352.00;;;;10486480;28;20262;-75
2022/10/15 18:55:14;;;;;;;6.03;2.10;;;;;13.80;100357.00;;;;10451405;28;20219;-75
2022/10/15 19:00:16;;;;;;;4.83;2.33;;;;;13.80;100361.00;;;;10447094;28;20190;-75
2022/10/15 19:05:17;;;;;;;4.45;2.42;;;;;13.90;100374.00;;;;10475802;28;20589;-75
2022/10/15 19:10:18;;;;;;;7.33;2.20;;;;;13.90;100368.00;;;;10459894;28;20213;-75
2022/10/15 19:15:20;;;;;;;5.97;2.10;;;;;13.80;100374.00;;;;10491566;28;20778;-75
2022/10/15 19:20:22;;;;;;;7.67;2.73;;;;;13.70;100385.00;;;;10495644;28;20202;-75
2022/10/15 19:25:24;;;;;;;5.37;2.53;;;;;13.60;100379.00;;;;10472853;28;20246;-75
2022/10/15 19:30:26;;;;;;;5.27;2.43;;;;;13.50;100390.00;;;;10502485;28;20228;-75
2022/10/15 19:35:27;;;;;;;7.13;2.80;;;;;13.40;100393.00;;;;10467700;28;20212;-75
2022/10/15 19:40:30;;;;;;;5.63;2.77;;;;;13.30;100392.00;;;;10496341;28;20608;-75
2022/10/15 19:45:39;;;;;;;5.13;2.20;;;;;13.30;100389.00;;;;10486646;28;20338;-75
2022/10/15 19:50:42;;;;;;;2.77;2.07;;;;;13.30;100393.00;;;;10454831;28;20942;-75
2022/10/15 19:55:57;;;;;;;3.60;2.00;;;;;13.20;100393.00;;;;10495883;28;20295;-75
2022/10/15 20:00:58;;;;;;;7.10;2.50;;;;;13.20;100392.00;;;;10493494;28;20648;-74
2022/10/15 20:06:01;;;;;;;7.63;2.57;;;;;13.30;100384.00;;;;10489599;28;20217;-75
2022/10/15 20:11:07;;;;;;;3.57;2.07;;;;;13.30;100398.00;;;;10497287;28;20209;-75
2022/10/15 20:16:12;;;;;;;5.73;2.27;;;;;13.30;100392.00;;;;10468794;28;20211;-75
2022/10/15 20:21:15;;;;;;;5.03;2.60;;;;;13.30;100400.00;;;;10490509;28;20202;-74
2022/10/15 20:26:17;;;;;;;5.43;2.63;;;;;13.40;100399.00;;;;10494820;28;20186;-75
2022/10/15 20:31:20;;;;;;;6.03;2.60;;;;;13.40;100401.00;;;;10482820;28;20590;-75
2022/10/15 20:36:25;;;;;;;4.03;2.53;;;;;13.40;100408.00;;;;10443278;28;20198;-75
2022/10/15 20:41:26;;;;;;;3.37;3.00;;;;;13.50;100408.00;;;;10491385;28;20289;-74
2022/10/15 20:46:32;;;;;;;5.53;2.40;;;;;13.50;100411.00;;;;10488456;28;20190;-75
2022/10/15 20:51:35;;;;;;;5.03;2.37;;;;;13.50;100429.00;;;;10457370;28;20229;-75
2022/10/15 20:56:38;;;;;;;7.53;3.10;;;;;13.40;100425.00;;;;10483777;28;20282;-75
2022/10/15 21:01:40;;;;;;;4.80;1.73;;;;;13.40;100420.00;;;;10476018;28;20347;-75
2022/10/15 21:06:41;;;;;;;3.93;2.37;;;;;13.30;100441.00;;;;10476074;28;20221;-75
2022/10/15 21:11:44;;;;;;;4.30;2.30;;;;;13.30;100443.00;;;;10482024;28;20305;-75
2022/10/15 21:16:46;;;;;;;5.63;2.67;;;;;13.20;100436.00;;;;10488044;28;20285;-75
2022/10/15 21:21:47;;;;;;;4.77;2.47;;;;;13.10;100444.00;;;;10462580;28;20201;-75
2022/10/15 21:26:48;;;;;;;6.67;2.43;;;;;13.20;100442.00;;;;10483670;28;20198;-75
2022/10/15 21:31:49;;;;;;;5.37;2.50;;;;;13.20;100448.00;;;;10481067;28;20308;-75
2022/10/15 21:36:50;;;;;;;2.37;2.17;;;;;13.20;100448.00;;;;10451106;28;20857;-75
2022/10/15 21:41:52;;;;;;;4.87;2.30;;;;;13.10;100459.00;;;;10461308;28;20626;-75
2022/10/15 21:46:53;;;;;;;3.93;2.07;;;;;13.10;100466.00;;;;10483203;28;20201;-75
2022/10/15 21:51:54;;;;;;;4.43;2.10;;;;;13.00;100466.00;;;;10489531;28;20722;-75
2022/10/15 21:56:55;;;;;;;4.07;2.47;;;;;13.00;100477.00;;;;10499978;28;20545;-75
2022/10/15 22:01:56;;;;;;;4.27;2.80;;;;;12.90;100474.00;;;;10487822;28;20204;-75
2022/10/15 22:06:58;;;;;;;6.43;2.37;;;;;12.90;100488.00;;;;10454688;28;20649;-75
2022/10/15 22:11:59;;;;;;;5.97;2.70;;;;;13.00;100487.00;;;;10487511;28;20250;-75
2022/10/15 22:17:00;;;;;;;4.27;2.37;;;;;13.00;100493.00;;;;10476763;28;20197;-75
2022/10/15 22:22:02;;;;;;;3.77;2.10;;;;;13.00;100495.00;;;;10476481;28;20194;-75
2022/10/15 22:27:03;;;;;;;3.27;2.13;;;;;12.90;100491.00;;;;10467835;28;20846;-75
2022/10/15 22:32:04;;;;;;;4.97;2.03;;;;;12.90;100492.00;;;;10476687;28;20205;-75
2022/10/15 22:37:06;;;;;;;2.10;1.77;;;;;12.90;100489.00;;;;10462909;28;20251;-75
2022/10/15 22:42:07;;;;;;;2.57;1.90;;;;;13.00;100489.00;;;;10491395;28;20193;-75
2022/10/15 22:47:09;;;;;;;1.60;1.47;;;;;13.00;100492.00;;;;10467780;28;20652;-75
2022/10/15 22:52:10;;;;;;;4.00;1.77;;;;;13.00;100479.00;;;;10441911;28;20210;-75
2022/10/15 22:57:11;;;;;;;2.43;1.40;;;;;13.00;100487.00;;;;10469424;28;20926;-75
2022/10/15 23:02:12;;;;;;;1.37;1.27;;;;;13.10;100486.00;;;;10491034;28;20201;-75
2022/10/15 23:07:14;;;;;;;1.70;1.50;;;;;13.10;100472.00;;;;10490303;28;20308;-75
2022/10/15 23:12:15;;;;;;;1.70;1.30;;;;;13.10;100471.00;;;;10477942;28;20671;-75
2022/10/15 23:17:16;;;;;;;1.20;1.00;;;;;13.10;100486.00;;;;10463964;28;20197;-75
2022/10/15 23:22:17;;;;;;;1.33;1.23;;;;;13.10;100492.00;;;;10471472;28;20940;-75
2022/10/15 23:27:18;;;;;;;3.70;1.27;;;;;13.00;100500.00;;;;10480733;28;20208;-75
2022/10/15 23:32:19;;;;;;;2.40;1.10;;;;;12.80;100494.00;;;;10475713;28;20832;-75
2022/10/15 23:37:21;;;;;;;1.80;1.10;;;;;12.70;100495.00;;;;10495812;28;20522;-75
2022/10/15 23:42:22;;;;;;;3.83;1.03;;;;;12.60;100500.00;;;;10468739;28;20231;-75
2022/10/15 23:47:23;;;;;;;3.43;1.17;;;;;12.60;100500.00;;;;10481993;28;20680;-75
2022/10/15 23:52:25;;;;;;;1.33;1.03;;;;;12.70;100507.00;;;;10479620;28;20217;-75
2022/10/15 23:57:26;;;;;;;2.40;0.80;;;;;12.70;100490.00;;;;10493636;28;20556;-75
